sensor_id;sensor_type;location;lat;lon;timestamp;temperature;humidity
11583;DHT22;34299;50.820;4.548;2024-01-30T00:01:54;10.60;99.90
11583;DHT22;34299;50.820;4.548;2024-01-30T00:04:21;10.60;99.90
11583;DHT22;34299;50.820;4.548;2024-01-30T00:06:51;10.60;99.90
11583;DHT22;34299;50.820;4.548;2024-01-30T00:09:18;10.60;99.90
11583;DHT22;34299;50.820;4.548;2024-01-30T00:11:45;10.70;99.90
11583;DHT22;34299;50.820;4.548;2024-01-30T00:14:12;10.70;99.90
11583;DHT22;34299;50.820;4.548;2024-01-30T00:16:39;10.70;99.90
11583;DHT22;34299;50.820;4.548;2024-01-30T00:19:06;10.50;99.90
11583;DHT22;34299;50.820;4.548;2024-01-30T00:21:34;10.60;99.90
11583;DHT22;34299;50.820;4.548;2024-01-30T00:24:02;10.70;99.90
11583;DHT22;34299;50.820;4.548;2024-01-30T00:26:30;10.80;99.90
11583;DHT22;34299;50.820;4.548;2024-01-30T00:28:57;10.70;99.90
11583;DHT22;34299;50.820;4.548;2024-01-30T00:31:24;10.70;99.90
11583;DHT22;34299;50.820;4.548;2024-01-30T00:33:51;10.80;99.90
11583;DHT22;34299;50.820;4.548;2024-01-30T00:36:18;10.70;99.90
11583;DHT22;34299;50.820;4.548;2024-01-30T00:38:45;10.60;99.90
11583;DHT22;34299;50.820;4.548;2024-01-30T00:41:15;10.70;99.90
11583;DHT22;34299;50.820;4.548;2024-01-30T00:43:43;10.70;99.90
11583;DHT22;34299;50.820;4.548;2024-01-30T00:46:10;10.70;99.90
11583;DHT22;34299;50.820;4.548;2024-01-30T00:48:37;10.70;99.90
11583;DHT22;34299;50.820;4.548;2024-01-30T00:51:04;10.60;99.90
11583;DHT22;34299;50.820;4.548;2024-01-30T00:53:31;10.50;99.90
11583;DHT22;34299;50.820;4.548;2024-01-30T00:55:58;10.60;99.90
11583;DHT22;34299;50.820;4.548;2024-01-30T00:58:26;10.50;99.90
11583;DHT22;34299;50.820;4.548;2024-01-30T01:00:53;10.50;99.90
11583;DHT22;34299;50.820;4.548;2024-01-30T01:03:20;10.50;99.90
11583;DHT22;34299;50.820;4.548;2024-01-30T01:05:48;10.60;99.90
11583;DHT22;34299;50.820;4.548;2024-01-30T01:08:15;10.60;99.90
11583;DHT22;34299;50.820;4.548;2024-01-30T01:10:42;10.80;99.90
11583;DHT22;34299;50.820;4.548;2024-01-30T01:13:09;10.70;99.90
11583;DHT22;34299;50.820;4.548;2024-01-30T01:15:37;10.80;99.90
11583;DHT22;34299;50.820;4.548;2024-01-30T01:18:05;10.60;99.90
11583;DHT22;34299;50.820;4.548;2024-01-30T01:20:32;10.70;99.90
11583;DHT22;34299;50.820;4.548;2024-01-30T01:22:59;10.60;99.90
11583;DHT22;34299;50.820;4.548;2024-01-30T01:25:26;10.70;99.90
11583;DHT22;34299;50.820;4.548;2024-01-30T01:27:53;10.70;99.90
11583;DHT22;34299;50.820;4.548;2024-01-30T01:30:20;10.60;99.90
11583;DHT22;34299;50.820;4.548;2024-01-30T01:32:49;10.70;99.90
11583;DHT22;34299;50.820;4.548;2024-01-30T01:35:21;10.60;99.90
11583;DHT22;34299;50.820;4.548;2024-01-30T01:37:48;10.50;99.90
11583;DHT22;34299;50.820;4.548;2024-01-30T01:40:21;10.60;99.90
11583;DHT22;34299;50.820;4.548;2024-01-30T01:42:49;10.60;99.90
11583;DHT22;34299;50.820;4.548;2024-01-30T01:45:17;10.60;99.90
11583;DHT22;34299;50.820;4.548;2024-01-30T01:47:45;10.60;99.90
11583;DHT22;34299;50.820;4.548;2024-01-30T01:50:16;10.60;99.90
11583;DHT22;34299;50.820;4.548;2024-01-30T01:52:45;10.60;99.90
11583;DHT22;34299;50.820;4.548;2024-01-30T01:55:13;10.60;99.90
11583;DHT22;34299;50.820;4.548;2024-01-30T01:57:41;10.60;99.90
11583;DHT22;34299;50.820;4.548;2024-01-30T02:00:09;10.70;99.90
11583;DHT22;34299;50.820;4.548;2024-01-30T02:02:37;10.70;99.90
11583;DHT22;34299;50.820;4.548;2024-01-30T02:05:06;10.70;99.90
11583;DHT22;34299;50.820;4.548;2024-01-30T02:07:34;10.70;99.90
11583;DHT22;34299;50.820;4.548;2024-01-30T02:10:02;10.70;99.90
11583;DHT22;34299;50.820;4.548;2024-01-30T02:12:30;10.70;99.90
11583;DHT22;34299;50.820;4.548;2024-01-30T02:14:57;10.70;99.90
11583;DHT22;34299;50.820;4.548;2024-01-30T02:17:24;10.80;99.90
11583;DHT22;34299;50.820;4.548;2024-01-30T02:19:52;10.70;99.90
11583;DHT22;34299;50.820;4.548;2024-01-30T02:22:20;10.70;99.90
11583;DHT22;34299;50.820;4.548;2024-01-30T02:24:48;10.70;99.90
11583;DHT22;34299;50.820;4.548;2024-01-30T02:27:15;10.70;99.90
11583;DHT22;34299;50.820;4.548;2024-01-30T02:29:42;10.60;99.90
11583;DHT22;34299;50.820;4.548;2024-01-30T02:32:08;10.60;99.90
11583;DHT22;34299;50.820;4.548;2024-01-30T02:34:35;10.60;99.90
11583;DHT22;34299;50.820;4.548;2024-01-30T02:37:02;10.50;99.90
11583;DHT22;34299;50.820;4.548;2024-01-30T02:39:31;10.50;99.90
11583;DHT22;34299;50.820;4.548;2024-01-30T02:41:58;10.50;99.90
11583;DHT22;34299;50.820;4.548;2024-01-30T02:44:24;10.60;99.90
11583;DHT22;34299;50.820;4.548;2024-01-30T02:46:51;10.60;99.90
11583;DHT22;34299;50.820;4.548;2024-01-30T02:49:19;10.60;99.90
11583;DHT22;34299;50.820;4.548;2024-01-30T02:51:46;10.60;99.90
11583;DHT22;34299;50.820;4.548;2024-01-30T02:54:13;10.60;99.90
11583;DHT22;34299;50.820;4.548;2024-01-30T02:56:41;10.70;99.90
11583;DHT22;34299;50.820;4.548;2024-01-30T02:59:08;10.60;99.90
11583;DHT22;34299;50.820;4.548;2024-01-30T03:01:42;10.60;99.90
11583;DHT22;34299;50.820;4.548;2024-01-30T03:04:09;10.60;99.90
11583;DHT22;34299;50.820;4.548;2024-01-30T03:06:36;10.70;99.90
11583;DHT22;34299;50.820;4.548;2024-01-30T03:09:03;10.60;99.90
11583;DHT22;34299;50.820;4.548;2024-01-30T03:11:31;10.70;99.90
11583;DHT22;34299;50.820;4.548;2024-01-30T03:13:59;10.70;99.90
11583;DHT22;34299;50.820;4.548;2024-01-30T03:16:26;10.70;99.90
11583;DHT22;34299;50.820;4.548;2024-01-30T03:18:53;10.70;99.90
11583;DHT22;34299;50.820;4.548;2024-01-30T03:21:19;10.60;99.90
11583;DHT22;34299;50.820;4.548;2024-01-30T03:23:47;10.60;99.90
11583;DHT22;34299;50.820;4.548;2024-01-30T03:26:14;10.40;99.90
11583;DHT22;34299;50.820;4.548;2024-01-30T03:28:41;10.60;99.90
11583;DHT22;34299;50.820;4.548;2024-01-30T03:31:09;10.60;99.90
11583;DHT22;34299;50.820;4.548;2024-01-30T03:33:37;10.50;99.90
11583;DHT22;34299;50.820;4.548;2024-01-30T03:36:05;10.60;99.90
11583;DHT22;34299;50.820;4.548;2024-01-30T03:38:32;10.60;99.90
11583;DHT22;34299;50.820;4.548;2024-01-30T03:40:59;10.50;99.90
11583;DHT22;34299;50.820;4.548;2024-01-30T03:43:26;10.50;99.90
11583;DHT22;34299;50.820;4.548;2024-01-30T03:45:53;10.60;99.90
11583;DHT22;34299;50.820;4.548;2024-01-30T03:48:21;10.60;99.90
11583;DHT22;34299;50.820;4.548;2024-01-30T03:50:48;10.50;99.90
11583;DHT22;34299;50.820;4.548;2024-01-30T03:53:15;10.60;99.90
11583;DHT22;34299;50.820;4.548;2024-01-30T03:55:42;10.60;99.90
11583;DHT22;34299;50.820;4.548;2024-01-30T03:58:09;10.40;99.90
11583;DHT22;34299;50.820;4.548;2024-01-30T04:00:36;10.60;99.90
11583;DHT22;34299;50.820;4.548;2024-01-30T04:03:03;10.60;99.90
11583;DHT22;34299;50.820;4.548;2024-01-30T04:05:32;10.60;99.90
11583;DHT22;34299;50.820;4.548;2024-01-30T04:07:59;10.50;99.90
11583;DHT22;34299;50.820;4.548;2024-01-30T04:10:26;10.60;99.90
11583;DHT22;34299;50.820;4.548;2024-01-30T04:12:53;10.60;99.90
11583;DHT22;34299;50.820;4.548;2024-01-30T04:15:21;10.50;99.90
11583;DHT22;34299;50.820;4.548;2024-01-30T04:17:48;10.50;99.90
11583;DHT22;34299;50.820;4.548;2024-01-30T04:20:15;10.50;99.90
11583;DHT22;34299;50.820;4.548;2024-01-30T04:22:44;10.50;99.90
11583;DHT22;34299;50.820;4.548;2024-01-30T04:25:12;10.60;99.90
11583;DHT22;34299;50.820;4.548;2024-01-30T04:27:39;10.60;99.90
11583;DHT22;34299;50.820;4.548;2024-01-30T04:30:07;10.50;99.90
11583;DHT22;34299;50.820;4.548;2024-01-30T04:32:35;10.50;99.90
11583;DHT22;34299;50.820;4.548;2024-01-30T04:35:02;10.50;99.90
11583;DHT22;34299;50.820;4.548;2024-01-30T04:37:29;10.50;99.90
11583;DHT22;34299;50.820;4.548;2024-01-30T04:39:57;10.50;99.90
11583;DHT22;34299;50.820;4.548;2024-01-30T04:42:24;10.50;99.90
11583;DHT22;34299;50.820;4.548;2024-01-30T04:44:51;10.60;99.90
11583;DHT22;34299;50.820;4.548;2024-01-30T04:47:18;10.50;99.90
11583;DHT22;34299;50.820;4.548;2024-01-30T04:49:45;10.50;99.90
11583;DHT22;34299;50.820;4.548;2024-01-30T04:52:12;10.40;99.90
11583;DHT22;34299;50.820;4.548;2024-01-30T04:54:39;10.40;99.90
11583;DHT22;34299;50.820;4.548;2024-01-30T04:57:07;10.50;99.90
11583;DHT22;34299;50.820;4.548;2024-01-30T04:59:37;10.40;99.90
11583;DHT22;34299;50.820;4.548;2024-01-30T05:02:04;10.40;99.90
11583;DHT22;34299;50.820;4.548;2024-01-30T05:04:31;10.40;99.90
11583;DHT22;34299;50.820;4.548;2024-01-30T05:06:58;10.50;99.90
11583;DHT22;34299;50.820;4.548;2024-01-30T05:09:25;10.50;99.90
11583;DHT22;34299;50.820;4.548;2024-01-30T05:11:52;10.50;99.90
11583;DHT22;34299;50.820;4.548;2024-01-30T05:14:20;10.50;99.90
11583;DHT22;34299;50.820;4.548;2024-01-30T05:16:47;10.50;99.90
11583;DHT22;34299;50.820;4.548;2024-01-30T05:19:14;10.50;99.90
11583;DHT22;34299;50.820;4.548;2024-01-30T05:21:41;10.50;99.90
11583;DHT22;34299;50.820;4.548;2024-01-30T05:24:08;10.50;99.90
11583;DHT22;34299;50.820;4.548;2024-01-30T05:26:35;10.50;99.90
11583;DHT22;34299;50.820;4.548;2024-01-30T05:29:03;10.50;99.90
11583;DHT22;34299;50.820;4.548;2024-01-30T05:31:31;10.60;99.90
11583;DHT22;34299;50.820;4.548;2024-01-30T05:33:58;10.60;99.90
11583;DHT22;34299;50.820;4.548;2024-01-30T05:36:25;10.50;99.90
11583;DHT22;34299;50.820;4.548;2024-01-30T05:38:52;10.50;99.90
11583;DHT22;34299;50.820;4.548;2024-01-30T05:41:19;10.50;99.90
11583;DHT22;34299;50.820;4.548;2024-01-30T05:43:46;10.50;99.90
11583;DHT22;34299;50.820;4.548;2024-01-30T05:46:13;10.50;99.90
11583;DHT22;34299;50.820;4.548;2024-01-30T05:48:41;10.60;99.90
11583;DHT22;34299;50.820;4.548;2024-01-30T05:51:08;10.60;99.90
11583;DHT22;34299;50.820;4.548;2024-01-30T05:53:35;10.80;99.90
11583;DHT22;34299;50.820;4.548;2024-01-30T05:56:03;10.50;99.90
11583;DHT22;34299;50.820;4.548;2024-01-30T05:58:30;10.50;99.90
11583;DHT22;34299;50.820;4.548;2024-01-30T06:00:57;10.60;99.90
11583;DHT22;34299;50.820;4.548;2024-01-30T06:03:24;10.50;99.90
11583;DHT22;34299;50.820;4.548;2024-01-30T06:05:52;10.40;99.90
11583;DHT22;34299;50.820;4.548;2024-01-30T06:08:19;10.50;99.90
11583;DHT22;34299;50.820;4.548;2024-01-30T06:10:46;10.60;99.90
11583;DHT22;34299;50.820;4.548;2024-01-30T06:13:13;10.60;99.90
11583;DHT22;34299;50.820;4.548;2024-01-30T06:15:40;10.50;99.90
11583;DHT22;34299;50.820;4.548;2024-01-30T06:18:07;10.50;99.90
11583;DHT22;34299;50.820;4.548;2024-01-30T06:20:34;10.50;99.90
11583;DHT22;34299;50.820;4.548;2024-01-30T06:23:03;10.40;99.90
11583;DHT22;34299;50.820;4.548;2024-01-30T06:25:30;10.50;99.90
11583;DHT22;34299;50.820;4.548;2024-01-30T06:27:57;10.50;99.90
11583;DHT22;34299;50.820;4.548;2024-01-30T06:30:24;10.60;99.90
11583;DHT22;34299;50.820;4.548;2024-01-30T06:32:51;10.50;99.90
11583;DHT22;34299;50.820;4.548;2024-01-30T06:35:18;10.50;99.90
11583;DHT22;34299;50.820;4.548;2024-01-30T06:37:45;10.50;99.90
11583;DHT22;34299;50.820;4.548;2024-01-30T06:40:13;10.50;99.90
11583;DHT22;34299;50.820;4.548;2024-01-30T06:42:40;10.50;99.90
11583;DHT22;34299;50.820;4.548;2024-01-30T06:45:08;10.50;99.90
11583;DHT22;34299;50.820;4.548;2024-01-30T06:47:35;10.40;99.90
11583;DHT22;34299;50.820;4.548;2024-01-30T06:50:02;10.40;99.90
11583;DHT22;34299;50.820;4.548;2024-01-30T06:52:29;10.40;99.90
11583;DHT22;34299;50.820;4.548;2024-01-30T06:54:56;10.40;99.90
11583;DHT22;34299;50.820;4.548;2024-01-30T06:57:24;10.40;99.90
11583;DHT22;34299;50.820;4.548;2024-01-30T06:59:56;10.40;99.90
11583;DHT22;34299;50.820;4.548;2024-01-30T07:02:23;10.40;99.90
11583;DHT22;34299;50.820;4.548;2024-01-30T07:04:50;10.40;99.90
11583;DHT22;34299;50.820;4.548;2024-01-30T07:07:17;10.40;99.90
11583;DHT22;34299;50.820;4.548;2024-01-30T07:09:44;10.40;99.90
11583;DHT22;34299;50.820;4.548;2024-01-30T07:12:11;10.40;99.90
11583;DHT22;34299;50.820;4.548;2024-01-30T07:14:39;10.40;99.90
11583;DHT22;34299;50.820;4.548;2024-01-30T07:17:06;10.40;99.90
11583;DHT22;34299;50.820;4.548;2024-01-30T07:19:33;10.30;99.90
11583;DHT22;34299;50.820;4.548;2024-01-30T07:22:00;10.30;99.90
11583;DHT22;34299;50.820;4.548;2024-01-30T07:24:27;10.30;99.90
11583;DHT22;34299;50.820;4.548;2024-01-30T07:26:54;10.30;99.90
11583;DHT22;34299;50.820;4.548;2024-01-30T07:29:21;10.20;99.90
11583;DHT22;34299;50.820;4.548;2024-01-30T07:31:49;10.30;99.90
11583;DHT22;34299;50.820;4.548;2024-01-30T07:34:16;10.30;99.90
11583;DHT22;34299;50.820;4.548;2024-01-30T07:36:43;10.30;99.90
11583;DHT22;34299;50.820;4.548;2024-01-30T07:39:11;10.30;99.90
11583;DHT22;34299;50.820;4.548;2024-01-30T07:41:38;10.40;99.90
11583;DHT22;34299;50.820;4.548;2024-01-30T07:44:05;10.40;99.90
11583;DHT22;34299;50.820;4.548;2024-01-30T07:46:32;10.50;99.90
11583;DHT22;34299;50.820;4.548;2024-01-30T07:49:00;10.60;99.90
11583;DHT22;34299;50.820;4.548;2024-01-30T07:51:28;10.50;99.90
11583;DHT22;34299;50.820;4.548;2024-01-30T07:53:57;10.60;99.90
11583;DHT22;34299;50.820;4.548;2024-01-30T07:56:24;10.60;99.90
11583;DHT22;34299;50.820;4.548;2024-01-30T07:58:51;10.70;99.90
11583;DHT22;34299;50.820;4.548;2024-01-30T08:01:19;10.80;99.90
11583;DHT22;34299;50.820;4.548;2024-01-30T08:03:46;10.70;99.90
11583;DHT22;34299;50.820;4.548;2024-01-30T08:06:14;10.80;99.90
11583;DHT22;34299;50.820;4.548;2024-01-30T08:08:41;10.80;99.90
11583;DHT22;34299;50.820;4.548;2024-01-30T08:11:08;10.80;99.90
11583;DHT22;34299;50.820;4.548;2024-01-30T08:13:35;10.80;99.90
11583;DHT22;34299;50.820;4.548;2024-01-30T08:16:02;10.80;99.90
11583;DHT22;34299;50.820;4.548;2024-01-30T08:18:30;10.80;99.90
11583;DHT22;34299;50.820;4.548;2024-01-30T08:20:57;10.80;99.90
11583;DHT22;34299;50.820;4.548;2024-01-30T08:23:25;10.80;99.90
11583;DHT22;34299;50.820;4.548;2024-01-30T08:25:52;10.80;99.90
11583;DHT22;34299;50.820;4.548;2024-01-30T08:28:19;10.90;99.90
11583;DHT22;34299;50.820;4.548;2024-01-30T08:30:46;10.90;99.90
11583;DHT22;34299;50.820;4.548;2024-01-30T08:33:13;10.90;99.90
11583;DHT22;34299;50.820;4.548;2024-01-30T08:35:40;10.90;99.90
11583;DHT22;34299;50.820;4.548;2024-01-30T08:38:07;11.00;99.90
11583;DHT22;34299;50.820;4.548;2024-01-30T08:40:35;11.00;99.90
11583;DHT22;34299;50.820;4.548;2024-01-30T08:43:02;11.00;99.90
11583;DHT22;34299;50.820;4.548;2024-01-30T08:45:30;11.00;99.90
11583;DHT22;34299;50.820;4.548;2024-01-30T08:47:57;11.00;99.90
11583;DHT22;34299;50.820;4.548;2024-01-30T08:50:24;11.00;99.90
11583;DHT22;34299;50.820;4.548;2024-01-30T08:52:51;11.00;99.90
11583;DHT22;34299;50.820;4.548;2024-01-30T08:55:18;11.10;99.90
11583;DHT22;34299;50.820;4.548;2024-01-30T08:57:46;11.20;99.90
11583;DHT22;34299;50.820;4.548;2024-01-30T09:00:14;11.20;99.90
11583;DHT22;34299;50.820;4.548;2024-01-30T09:02:41;11.40;99.90
11583;DHT22;34299;50.820;4.548;2024-01-30T09:05:08;11.50;99.90
11583;DHT22;34299;50.820;4.548;2024-01-30T09:07:35;11.30;99.90
11583;DHT22;34299;50.820;4.548;2024-01-30T09:10:03;11.20;99.90
11583;DHT22;34299;50.820;4.548;2024-01-30T09:12:30;11.30;99.90
11583;DHT22;34299;50.820;4.548;2024-01-30T09:14:59;11.20;99.90
11583;DHT22;34299;50.820;4.548;2024-01-30T09:17:26;11.30;99.90
11583;DHT22;34299;50.820;4.548;2024-01-30T09:19:52;11.20;99.90
11583;DHT22;34299;50.820;4.548;2024-01-30T09:22:19;11.30;99.90
11583;DHT22;34299;50.820;4.548;2024-01-30T09:24:46;11.20;99.90
11583;DHT22;34299;50.820;4.548;2024-01-30T09:27:13;11.50;99.90
11583;DHT22;34299;50.820;4.548;2024-01-30T09:29:40;11.30;99.90
11583;DHT22;34299;50.820;4.548;2024-01-30T09:32:08;11.30;99.90
11583;DHT22;34299;50.820;4.548;2024-01-30T09:34:35;11.50;99.90
11583;DHT22;34299;50.820;4.548;2024-01-30T09:37:02;11.40;99.90
11583;DHT22;34299;50.820;4.548;2024-01-30T09:39:29;11.20;99.90
11583;DHT22;34299;50.820;4.548;2024-01-30T09:42:02;11.50;99.90
11583;DHT22;34299;50.820;4.548;2024-01-30T09:44:32;11.60;99.90
11583;DHT22;34299;50.820;4.548;2024-01-30T09:47:01;11.70;99.90
11583;DHT22;34299;50.820;4.548;2024-01-30T09:49:32;11.70;99.90
11583;DHT22;34299;50.820;4.548;2024-01-30T09:51:59;11.70;99.90
11583;DHT22;34299;50.820;4.548;2024-01-30T09:54:26;11.50;99.90
11583;DHT22;34299;50.820;4.548;2024-01-30T09:56:53;11.70;99.90
11583;DHT22;34299;50.820;4.548;2024-01-30T09:59:20;11.70;99.90
11583;DHT22;34299;50.820;4.548;2024-01-30T10:01:47;11.90;99.90
11583;DHT22;34299;50.820;4.548;2024-01-30T10:04:15;11.70;99.90
11583;DHT22;34299;50.820;4.548;2024-01-30T10:06:43;11.50;99.90
11583;DHT22;34299;50.820;4.548;2024-01-30T10:09:10;11.60;99.90
11583;DHT22;34299;50.820;4.548;2024-01-30T10:11:37;11.50;99.90
11583;DHT22;34299;50.820;4.548;2024-01-30T10:14:04;11.70;99.90
11583;DHT22;34299;50.820;4.548;2024-01-30T10:16:31;11.60;99.90
11583;DHT22;34299;50.820;4.548;2024-01-30T10:18:58;11.60;99.90
11583;DHT22;34299;50.820;4.548;2024-01-30T10:21:25;11.70;99.90
11583;DHT22;34299;50.820;4.548;2024-01-30T10:23:53;11.50;99.90
11583;DHT22;34299;50.820;4.548;2024-01-30T10:26:20;11.40;99.90
11583;DHT22;34299;50.820;4.548;2024-01-30T10:28:48;11.40;99.90
11583;DHT22;34299;50.820;4.548;2024-01-30T10:31:17;11.50;99.90
11583;DHT22;34299;50.820;4.548;2024-01-30T10:33:44;11.60;99.90
11583;DHT22;34299;50.820;4.548;2024-01-30T10:36:13;11.50;99.90
11583;DHT22;34299;50.820;4.548;2024-01-30T10:38:42;11.50;99.90
11583;DHT22;34299;50.820;4.548;2024-01-30T10:41:11;11.50;99.90
11583;DHT22;34299;50.820;4.548;2024-01-30T10:43:41;11.40;99.90
11583;DHT22;34299;50.820;4.548;2024-01-30T10:46:11;11.40;99.90
11583;DHT22;34299;50.820;4.548;2024-01-30T10:48:43;11.30;99.90
11583;DHT22;34299;50.820;4.548;2024-01-30T10:51:11;11.10;99.90
11583;DHT22;34299;50.820;4.548;2024-01-30T10:53:39;11.00;99.90
11583;DHT22;34299;50.820;4.548;2024-01-30T10:56:06;11.10;99.90
11583;DHT22;34299;50.820;4.548;2024-01-30T10:58:36;11.10;99.90
11583;DHT22;34299;50.820;4.548;2024-01-30T11:01:04;11.10;99.90
11583;DHT22;34299;50.820;4.548;2024-01-30T11:03:32;11.30;99.90
11583;DHT22;34299;50.820;4.548;2024-01-30T11:06:02;11.20;99.90
11583;DHT22;34299;50.820;4.548;2024-01-30T11:08:32;11.20;99.90
11583;DHT22;34299;50.820;4.548;2024-01-30T11:10:59;11.00;99.90
11583;DHT22;34299;50.820;4.548;2024-01-30T11:13:29;11.10;99.90
11583;DHT22;34299;50.820;4.548;2024-01-30T11:16:02;10.90;99.90
11583;DHT22;34299;50.820;4.548;2024-01-30T11:18:30;10.90;99.90
11583;DHT22;34299;50.820;4.548;2024-01-30T11:20:57;11.00;99.90
11583;DHT22;34299;50.820;4.548;2024-01-30T11:23:26;10.90;99.90
11583;DHT22;34299;50.820;4.548;2024-01-30T11:25:54;10.80;99.90
11583;DHT22;34299;50.820;4.548;2024-01-30T11:28:21;10.80;99.90
11583;DHT22;34299;50.820;4.548;2024-01-30T11:30:49;10.60;99.90
11583;DHT22;34299;50.820;4.548;2024-01-30T11:33:28;10.60;99.90
11583;DHT22;34299;50.820;4.548;2024-01-30T11:35:57;10.70;99.90
11583;DHT22;34299;50.820;4.548;2024-01-30T11:38:26;10.80;99.90
11583;DHT22;34299;50.820;4.548;2024-01-30T11:40:54;10.90;99.90
11583;DHT22;34299;50.820;4.548;2024-01-30T11:43:21;10.70;99.90
11583;DHT22;34299;50.820;4.548;2024-01-30T11:45:49;10.80;99.90
11583;DHT22;34299;50.820;4.548;2024-01-30T11:48:17;10.90;99.90
11583;DHT22;34299;50.820;4.548;2024-01-30T11:50:45;10.90;99.90
11583;DHT22;34299;50.820;4.548;2024-01-30T11:53:11;10.90;99.90
11583;DHT22;34299;50.820;4.548;2024-01-30T11:55:38;10.80;99.90
11583;DHT22;34299;50.820;4.548;2024-01-30T11:58:05;10.70;99.90
11583;DHT22;34299;50.820;4.548;2024-01-30T12:00:32;10.90;99.90
11583;DHT22;34299;50.820;4.548;2024-01-30T12:02:59;10.80;99.90
11583;DHT22;34299;50.820;4.548;2024-01-30T12:05:29;10.60;99.90
11583;DHT22;34299;50.820;4.548;2024-01-30T12:07:56;11.20;99.90
11583;DHT22;34299;50.820;4.548;2024-01-30T12:10:24;10.50;99.90
11583;DHT22;34299;50.820;4.548;2024-01-30T12:12:54;10.60;99.90
11583;DHT22;34299;50.820;4.548;2024-01-30T12:15:22;10.50;99.90
11583;DHT22;34299;50.820;4.548;2024-01-30T12:17:49;10.40;99.90
11583;DHT22;34299;50.820;4.548;2024-01-30T12:20:18;10.60;99.90
11583;DHT22;34299;50.820;4.548;2024-01-30T12:22:48;10.70;99.90
11583;DHT22;34299;50.820;4.548;2024-01-30T12:25:16;10.70;99.90
11583;DHT22;34299;50.820;4.548;2024-01-30T12:27:44;11.20;99.90
11583;DHT22;34299;50.820;4.548;2024-01-30T12:30:13;11.00;99.90
11583;DHT22;34299;50.820;4.548;2024-01-30T12:32:41;11.30;99.90
11583;DHT22;34299;50.820;4.548;2024-01-30T12:35:09;10.80;99.90
11583;DHT22;34299;50.820;4.548;2024-01-30T12:37:36;10.80;99.90
11583;DHT22;34299;50.820;4.548;2024-01-30T12:40:06;10.70;99.90
11583;DHT22;34299;50.820;4.548;2024-01-30T12:42:34;10.60;99.90
11583;DHT22;34299;50.820;4.548;2024-01-30T12:45:02;10.60;99.90
11583;DHT22;34299;50.820;4.548;2024-01-30T12:47:29;10.80;99.90
11583;DHT22;34299;50.820;4.548;2024-01-30T12:49:56;10.80;99.90
11583;DHT22;34299;50.820;4.548;2024-01-30T12:52:23;10.90;99.90
11583;DHT22;34299;50.820;4.548;2024-01-30T12:54:51;11.20;99.90
11583;DHT22;34299;50.820;4.548;2024-01-30T12:57:19;11.40;99.90
11583;DHT22;34299;50.820;4.548;2024-01-30T12:59:46;12.00;99.90
11583;DHT22;34299;50.820;4.548;2024-01-30T13:02:14;12.60;99.90
11583;DHT22;34299;50.820;4.548;2024-01-30T13:04:42;12.60;99.90
11583;DHT22;34299;50.820;4.548;2024-01-30T13:07:09;12.30;99.90
11583;DHT22;34299;50.820;4.548;2024-01-30T13:09:36;12.80;99.90
11583;DHT22;34299;50.820;4.548;2024-01-30T13:12:04;12.80;99.90
11583;DHT22;34299;50.820;4.548;2024-01-30T13:14:32;13.20;99.90
11583;DHT22;34299;50.820;4.548;2024-01-30T13:16:59;13.10;99.90
11583;DHT22;34299;50.820;4.548;2024-01-30T13:19:26;12.30;99.90
11583;DHT22;34299;50.820;4.548;2024-01-30T13:21:53;12.50;99.90
11583;DHT22;34299;50.820;4.548;2024-01-30T13:24:20;11.60;99.90
11583;DHT22;34299;50.820;4.548;2024-01-30T13:26:47;11.50;99.90
11583;DHT22;34299;50.820;4.548;2024-01-30T13:29:15;11.40;99.90
11583;DHT22;34299;50.820;4.548;2024-01-30T13:31:43;11.50;99.90
11583;DHT22;34299;50.820;4.548;2024-01-30T13:34:12;11.90;99.90
11583;DHT22;34299;50.820;4.548;2024-01-30T13:36:40;11.60;99.90
11583;DHT22;34299;50.820;4.548;2024-01-30T13:39:07;11.30;99.90
11583;DHT22;34299;50.820;4.548;2024-01-30T13:41:36;11.30;99.90
11583;DHT22;34299;50.820;4.548;2024-01-30T13:44:03;10.90;99.90
11583;DHT22;34299;50.820;4.548;2024-01-30T13:46:30;10.90;99.90
11583;DHT22;34299;50.820;4.548;2024-01-30T13:48:59;10.70;99.90
11583;DHT22;34299;50.820;4.548;2024-01-30T13:51:25;10.50;99.90
11583;DHT22;34299;50.820;4.548;2024-01-30T13:53:52;10.50;99.90
11583;DHT22;34299;50.820;4.548;2024-01-30T13:56:20;10.50;99.90
11583;DHT22;34299;50.820;4.548;2024-01-30T13:58:48;10.70;99.90
11583;DHT22;34299;50.820;4.548;2024-01-30T14:01:15;10.50;99.90
11583;DHT22;34299;50.820;4.548;2024-01-30T14:03:42;10.60;99.90
11583;DHT22;34299;50.820;4.548;2024-01-30T14:06:11;10.50;99.90
11583;DHT22;34299;50.820;4.548;2024-01-30T14:08:38;10.60;99.90
11583;DHT22;34299;50.820;4.548;2024-01-30T14:11:05;10.60;99.90
11583;DHT22;34299;50.820;4.548;2024-01-30T14:13:32;10.60;99.90
11583;DHT22;34299;50.820;4.548;2024-01-30T14:16:00;10.40;99.90
11583;DHT22;34299;50.820;4.548;2024-01-30T14:18:27;10.40;99.90
11583;DHT22;34299;50.820;4.548;2024-01-30T14:20:54;10.70;99.90
11583;DHT22;34299;50.820;4.548;2024-01-30T14:23:22;10.60;99.90
11583;DHT22;34299;50.820;4.548;2024-01-30T14:25:49;10.80;99.90
11583;DHT22;34299;50.820;4.548;2024-01-30T14:28:18;10.70;99.90
11583;DHT22;34299;50.820;4.548;2024-01-30T14:30:45;10.60;99.90
11583;DHT22;34299;50.820;4.548;2024-01-30T14:33:12;10.70;99.90
11583;DHT22;34299;50.820;4.548;2024-01-30T14:35:39;10.80;99.90
11583;DHT22;34299;50.820;4.548;2024-01-30T14:38:06;11.40;99.90
11583;DHT22;34299;50.820;4.548;2024-01-30T14:40:34;11.30;99.90
11583;DHT22;34299;50.820;4.548;2024-01-30T14:43:01;10.50;99.90
11583;DHT22;34299;50.820;4.548;2024-01-30T14:45:29;10.30;99.90
11583;DHT22;34299;50.820;4.548;2024-01-30T14:47:57;10.30;99.90
11583;DHT22;34299;50.820;4.548;2024-01-30T14:50:25;10.30;99.90
11583;DHT22;34299;50.820;4.548;2024-01-30T14:52:52;10.40;99.90
11583;DHT22;34299;50.820;4.548;2024-01-30T14:55:19;10.40;99.90
11583;DHT22;34299;50.820;4.548;2024-01-30T14:57:47;10.30;99.90
11583;DHT22;34299;50.820;4.548;2024-01-30T15:00:15;10.40;99.90
11583;DHT22;34299;50.820;4.548;2024-01-30T15:02:43;10.20;99.90
11583;DHT22;34299;50.820;4.548;2024-01-30T15:05:10;10.40;99.90
11583;DHT22;34299;50.820;4.548;2024-01-30T15:07:37;10.50;99.90
11583;DHT22;34299;50.820;4.548;2024-01-30T15:10:05;10.20;99.90
11583;DHT22;34299;50.820;4.548;2024-01-30T15:12:32;10.10;99.90
11583;DHT22;34299;50.820;4.548;2024-01-30T15:15:00;9.90;99.90
11583;DHT22;34299;50.820;4.548;2024-01-30T15:17:27;9.70;99.90
11583;DHT22;34299;50.820;4.548;2024-01-30T15:19:54;9.80;99.90
11583;DHT22;34299;50.820;4.548;2024-01-30T15:22:21;9.80;99.90
11583;DHT22;34299;50.820;4.548;2024-01-30T15:24:49;9.80;99.90
11583;DHT22;34299;50.820;4.548;2024-01-30T15:27:16;9.80;99.90
11583;DHT22;34299;50.820;4.548;2024-01-30T15:29:45;9.80;99.90
11583;DHT22;34299;50.820;4.548;2024-01-30T15:32:13;9.70;99.90